createdAt,value
2022-08-03T00:00:59.088Z,17.20
2022-08-03T00:03:02.374Z,19.35
2022-08-03T00:05:04.134Z,17.90
2022-08-03T00:07:05.731Z,17.38
2022-08-03T00:09:07.685Z,15.45
2022-08-03T00:11:09.293Z,16.20
2022-08-03T00:13:13.083Z,20.08
2022-08-03T00:15:16.463Z,15.98
2022-08-03T00:17:18.641Z,17.23
2022-08-03T00:19:20.387Z,18.95
2022-08-03T00:21:22.181Z,18.55
2022-08-03T00:23:23.739Z,17.20
2022-08-03T00:25:25.398Z,18.75
2022-08-03T00:27:27.362Z,18.55
2022-08-03T00:29:34.078Z,19.15
2022-08-03T00:32:00.189Z,18.60
2022-08-03T00:34:03.529Z,17.20
2022-08-03T00:36:05.860Z,25.00
2022-08-03T00:38:07.485Z,21.75
2022-08-03T00:40:11.329Z,22.58
2022-08-03T00:42:13.018Z,19.30
2022-08-03T00:44:14.663Z,24.40
2022-08-03T00:46:21.258Z,18.25
2022-08-03T00:48:31.036Z,18.45
2022-08-03T00:50:36.738Z,18.02
2022-08-03T00:52:38.969Z,20.33
2022-08-03T00:54:40.914Z,21.43
2022-08-03T00:57:00.221Z,19.60
2022-08-03T00:59:03.368Z,18.35
2022-08-03T01:01:07.151Z,18.88
2022-08-03T01:03:09.851Z,18.77
2022-08-03T01:05:11.850Z,18.60
2022-08-03T01:07:37.088Z,19.80
2022-08-03T01:09:46.223Z,23.10
2022-08-03T01:11:59.872Z,24.13
2022-08-03T01:14:18.921Z,19.55
2022-08-03T01:16:28.067Z,20.98
2022-08-03T01:18:45.173Z,19.45
2022-08-03T01:20:53.528Z,17.77
2022-08-03T01:23:30.757Z,17.92
2022-08-03T01:25:54.412Z,22.52
2022-08-03T01:28:14.928Z,18.40
2022-08-03T01:30:16.589Z,19.77
2022-08-03T01:32:59.183Z,21.67
2022-08-03T01:34:48.411Z,19.58
2022-08-03T01:36:52.450Z,22.60
2022-08-03T01:38:55.431Z,22.55
2022-08-03T01:40:57.542Z,20.23
2022-08-03T01:43:01.771Z,20.48
2022-08-03T01:45:04.594Z,25.27
2022-08-03T01:47:06.527Z,19.33
2022-08-03T01:49:11.065Z,24.58
2022-08-03T01:51:15.567Z,22.02
2022-08-03T01:53:17.298Z,20.70
2022-08-03T01:55:19.435Z,21.35
2022-08-03T01:57:22.423Z,21.95
2022-08-03T01:59:25.792Z,23.55
2022-08-03T02:02:28.327Z,23.08
2022-08-03T02:04:00.706Z,21.17
2022-08-03T02:07:00.622Z,24.08
2022-08-03T02:08:25.647Z,20.38
2022-08-03T02:12:38.306Z,21.20
2022-08-03T02:14:41.353Z,21.98
2022-08-03T02:16:43.807Z,22.77
2022-08-03T02:18:46.274Z,22.48
2022-08-03T02:20:50.086Z,23.63
2022-08-03T02:22:51.890Z,23.83
2022-08-03T02:24:53.603Z,24.08
2022-08-03T02:26:56.379Z,24.13
2022-08-03T02:31:02.951Z,25.98
2022-08-03T02:33:05.273Z,23.20
2022-08-03T02:35:09.477Z,22.55
2022-08-03T02:37:11.671Z,22.48
2022-08-03T02:39:15.691Z,23.17
2022-08-03T02:41:20.724Z,22.13
2022-08-03T02:43:23.707Z,24.20
2022-08-03T02:45:26.518Z,23.00
2022-08-03T02:49:41.186Z,24.02
2022-08-03T02:51:53.195Z,22.10
2022-08-03T02:55:56.796Z,22.17
2022-08-03T02:58:01.415Z,25.27
2022-08-03T03:00:04.273Z,22.20
2022-08-03T03:02:06.210Z,23.52
2022-08-03T03:04:09.889Z,25.83
2022-08-03T03:06:15.308Z,23.55
2022-08-03T03:08:25.828Z,23.20
2022-08-03T03:10:28.267Z,22.35
2022-08-03T03:12:31.149Z,24.92
2022-08-03T03:14:34.274Z,23.40
2022-08-03T03:16:36.317Z,23.25
2022-08-03T03:18:38.174Z,23.23
2022-08-03T03:20:40.858Z,23.98
2022-08-03T03:22:45.317Z,21.65
2022-08-03T03:24:48.059Z,27.75
2022-08-03T03:26:49.937Z,23.02
2022-08-03T03:28:52.295Z,22.17
2022-08-03T03:30:54.118Z,22.27
2022-08-03T03:32:55.947Z,22.20
2022-08-03T03:34:59.223Z,20.90
2022-08-03T03:37:01.564Z,25.08
2022-08-03T03:39:15.211Z,23.17
2022-08-03T03:41:17.987Z,23.13
2022-08-03T03:43:23.586Z,23.65
2022-08-03T03:45:25.423Z,23.48
2022-08-03T03:47:32.276Z,26.63
2022-08-03T03:49:34.481Z,24.05
2022-08-03T03:51:36.153Z,21.40
2022-08-03T03:53:37.700Z,23.30
2022-08-03T03:56:01.518Z,23.00
2022-08-03T03:58:03.823Z,23.73
2022-08-03T04:00:06.253Z,21.83
2022-08-03T04:02:09.056Z,22.10
2022-08-03T04:04:29.560Z,19.63
2022-08-03T04:06:51.384Z,23.88
2022-08-03T04:09:11.719Z,23.65
2022-08-03T04:11:19.393Z,24.73
2022-08-03T04:13:39.327Z,25.73
2022-08-03T04:15:41.451Z,22.40
2022-08-03T04:17:43.827Z,24.42
2022-08-03T04:19:47.777Z,23.60
2022-08-03T04:21:52.981Z,20.80
2022-08-03T04:24:00.316Z,20.65
2022-08-03T04:26:02.791Z,27.15
2022-08-03T04:28:30.062Z,27.48
2022-08-03T04:30:27.660Z,28.63
2022-08-03T04:32:30.719Z,21.77
2022-08-03T04:34:32.576Z,26.38
2022-08-03T04:36:37.207Z,23.83
2022-08-03T04:38:40.063Z,22.92
2022-08-03T04:40:42.792Z,27.20
2022-08-03T04:42:44.626Z,26.20
2022-08-03T04:44:46.846Z,22.85
2022-08-03T04:46:52.485Z,24.17
2022-08-03T04:48:54.874Z,22.27
2022-08-03T04:50:56.647Z,24.73
2022-08-03T04:52:59.171Z,25.63
2022-08-03T04:57:03.229Z,23.95
2022-08-03T04:59:04.995Z,24.63
2022-08-03T05:01:06.553Z,24.95
2022-08-03T05:03:20.144Z,24.23
2022-08-03T05:05:26.524Z,21.75
2022-08-03T05:07:48.139Z,25.30
2022-08-03T05:09:52.743Z,24.17
2022-08-03T05:11:59.503Z,27.05
2022-08-03T05:14:01.100Z,22.67
2022-08-03T05:16:02.678Z,23.67
2022-08-03T05:18:04.535Z,26.98
2022-08-03T05:20:06.367Z,23.73
2022-08-03T05:22:07.981Z,29.80
2022-08-03T05:24:09.851Z,27.97
2022-08-03T05:26:14.468Z,22.58
2022-08-03T05:28:16.219Z,22.92
2022-08-03T05:30:29.866Z,23.38
2022-08-03T05:32:35.928Z,22.35
2022-08-03T05:34:37.563Z,22.63
2022-08-03T05:36:39.672Z,25.97
2022-08-03T05:38:41.526Z,26.80
2022-08-03T05:40:56.812Z,21.08
2022-08-03T05:42:59.687Z,23.75
2022-08-03T05:45:03.882Z,30.45
2022-08-03T05:47:05.892Z,21.95
2022-08-03T05:49:07.750Z,24.15
2022-08-03T05:51:11.428Z,27.73
2022-08-03T05:53:13.661Z,27.83
2022-08-03T05:55:16.633Z,21.92
2022-08-03T05:57:18.441Z,21.40
2022-08-03T05:59:37.640Z,22.02
2022-08-03T06:01:40.179Z,25.23
2022-08-03T06:03:42.156Z,24.05
2022-08-03T06:05:53.486Z,24.50
2022-08-03T06:08:05.474Z,25.52
2022-08-03T06:10:36.291Z,28.48
2022-08-03T06:12:29.413Z,27.52
2022-08-03T06:14:31.255Z,24.98
2022-08-03T06:16:33.688Z,25.08
2022-08-03T06:18:35.414Z,22.90
2022-08-03T06:20:37.260Z,31.98
2022-08-03T06:22:44.533Z,29.35
2022-08-03T06:24:53.704Z,27.90
2022-08-03T06:26:56.867Z,29.13
2022-08-03T06:28:58.525Z,27.95
2022-08-03T06:33:02.838Z,24.17
2022-08-03T06:35:05.236Z,25.25
2022-08-03T06:37:06.884Z,23.83
2022-08-03T06:39:08.732Z,26.95
2022-08-03T06:41:10.388Z,25.38
2022-08-03T06:43:12.678Z,25.53
2022-08-03T06:45:14.687Z,30.35
2022-08-03T06:47:16.348Z,27.38
2022-08-03T06:49:18.961Z,34.37
2022-08-03T06:51:21.487Z,30.20
2022-08-03T06:53:43.179Z,27.92
2022-08-03T06:55:44.859Z,31.48
2022-08-03T06:57:46.634Z,27.05
2022-08-03T07:00:08.124Z,29.05
2022-08-03T07:02:10.366Z,28.00
2022-08-03T07:04:12.299Z,31.17
2022-08-03T07:06:14.046Z,28.53
2022-08-03T07:08:15.682Z,28.10
2022-08-03T07:10:17.554Z,31.58
2022-08-03T07:12:19.442Z,31.37
2022-08-03T07:14:21.442Z,28.52
2022-08-03T07:16:23.314Z,29.70
2022-08-03T07:18:29.504Z,33.47
2022-08-03T07:20:32.731Z,37.10
2022-08-03T07:22:34.882Z,34.67
2022-08-03T07:24:36.624Z,32.03
2022-08-03T07:26:38.251Z,34.60
2022-08-03T07:28:41.452Z,28.33
2022-08-03T07:30:43.208Z,27.02
2022-08-03T07:32:49.845Z,28.33
2022-08-03T07:34:56.942Z,28.73
2022-08-03T07:37:01.807Z,25.40
2022-08-03T07:39:17.775Z,25.63
2022-08-03T07:41:20.308Z,26.02
2022-08-03T07:43:21.999Z,23.42
2022-08-03T07:45:24.239Z,21.35
2022-08-03T07:47:35.090Z,24.80
2022-08-03T07:49:41.216Z,25.13
2022-08-03T07:51:42.949Z,26.75
2022-08-03T07:53:47.261Z,19.70
2022-08-03T07:55:53.804Z,20.27
2022-08-03T07:58:01.150Z,24.40
2022-08-03T08:00:07.495Z,21.05
2022-08-03T08:02:09.100Z,19.20
2022-08-03T08:04:11.173Z,12.70
2022-08-03T08:06:13.650Z,15.13
2022-08-03T08:08:15.653Z,18.77
2022-08-03T08:10:17.236Z,15.65
2022-08-03T08:12:21.666Z,11.02
2022-08-03T08:14:23.326Z,13.13
2022-08-03T08:16:32.375Z,10.80
2022-08-03T08:18:34.535Z,12.90
2022-08-03T08:20:38.895Z,10.43
2022-08-03T08:22:42.480Z,14.43
2022-08-03T08:24:48.476Z,13.02
2022-08-03T08:26:52.185Z,12.63
2022-08-03T08:28:53.860Z,8.60
2022-08-03T08:30:57.184Z,13.80
2022-08-03T08:32:59.004Z,11.00
2022-08-03T08:35:00.667Z,9.93
2022-08-03T08:37:05.074Z,8.82
2022-08-03T08:39:07.975Z,7.77
2022-08-03T08:41:10.772Z,8.45
2022-08-03T08:43:12.596Z,12.32
2022-08-03T08:45:15.599Z,11.33
2022-08-03T08:47:18.960Z,9.98
2022-08-03T08:49:23.316Z,6.07
2022-08-03T08:51:43.847Z,9.45
2022-08-03T08:53:53.941Z,6.00
2022-08-03T08:56:00.854Z,10.90
2022-08-03T08:58:05.213Z,6.95
2022-08-03T09:00:28.480Z,7.97
2022-08-03T09:04:32.371Z,12.38
2022-08-03T09:06:34.359Z,9.70
2022-08-03T09:08:38.640Z,12.40
2022-08-03T09:10:40.335Z,7.97
2022-08-03T09:12:43.233Z,11.40
2022-08-03T09:15:00.762Z,6.82
2022-08-03T09:17:07.373Z,6.57
2022-08-03T09:19:15.244Z,8.30
2022-08-03T09:21:33.520Z,7.28
2022-08-03T09:24:16.371Z,6.22
2022-08-03T09:26:25.415Z,7.15
2022-08-03T09:28:56.605Z,12.55
2022-08-03T09:30:58.921Z,9.15
2022-08-03T09:33:02.536Z,6.30
2022-08-03T09:35:04.513Z,7.05
2022-08-03T09:37:13.527Z,12.02
2022-08-03T09:39:40.811Z,7.07
2022-08-03T09:41:44.769Z,7.47
2022-08-03T09:43:46.766Z,13.05
2022-08-03T09:45:49.715Z,8.25
2022-08-03T09:47:51.615Z,13.63
2022-08-03T09:49:57.789Z,6.55
2022-08-03T09:52:38.450Z,6.97
2022-08-03T09:54:34.980Z,14.48
2022-08-03T09:56:40.326Z,7.57
2022-08-03T09:58:46.137Z,7.63
2022-08-03T10:01:01.188Z,7.35
2022-08-03T10:03:06.055Z,7.95
2022-08-03T10:05:09.470Z,7.97
2022-08-03T10:07:11.449Z,9.35
2022-08-03T10:09:14.921Z,8.88
2022-08-03T10:11:36.207Z,8.63
2022-08-03T10:13:42.906Z,9.35
2022-08-03T10:16:22.546Z,7.88
2022-08-03T10:18:07.270Z,9.25
2022-08-03T10:20:09.328Z,7.88
2022-08-03T10:22:13.656Z,7.10
2022-08-03T10:24:17.159Z,6.05
2022-08-03T10:26:21.532Z,7.03
2022-08-03T10:28:23.732Z,6.25
2022-08-03T10:30:28.338Z,7.15
2022-08-03T10:32:34.393Z,6.75
2022-08-03T10:34:44.251Z,6.88
2022-08-03T10:36:48.711Z,7.03
2022-08-03T10:38:55.269Z,9.40
2022-08-03T10:40:59.225Z,5.80
2022-08-03T10:43:07.840Z,5.85
2022-08-03T10:45:12.889Z,5.78
2022-08-03T10:47:14.636Z,5.63
2022-08-03T10:49:33.894Z,7.40
2022-08-03T10:51:36.249Z,8.23
2022-08-03T10:53:39.677Z,6.80
2022-08-03T10:56:05.619Z,5.78
2022-08-03T10:58:11.162Z,6.07
2022-08-03T11:00:20.491Z,8.82
2022-08-03T11:02:44.121Z,6.82
2022-08-03T11:04:45.808Z,8.18
2022-08-03T11:06:49.217Z,7.07
2022-08-03T11:09:11.593Z,6.78
2022-08-03T11:11:19.490Z,7.28
2022-08-03T11:13:25.370Z,8.65
2022-08-03T11:15:32.655Z,5.95
2022-08-03T11:17:46.311Z,5.82
2022-08-03T11:19:58.583Z,8.02
2022-08-03T11:22:03.103Z,6.63
2022-08-03T11:24:06.807Z,7.88
2022-08-03T11:26:15.683Z,5.78
2022-08-03T11:28:30.636Z,7.05
2022-08-03T11:30:32.756Z,6.35
2022-08-03T11:32:51.724Z,7.63
2022-08-03T11:37:33.004Z,11.35
2022-08-03T11:39:49.505Z,7.00
2022-08-03T11:41:57.520Z,11.00
2022-08-03T11:43:59.752Z,10.70
2022-08-03T11:46:03.236Z,8.02
2022-08-03T11:48:16.600Z,11.27
2022-08-03T11:50:19.496Z,10.23
2022-08-03T11:53:18.470Z,7.15
2022-08-03T11:55:21.980Z,6.28
2022-08-03T11:59:16.990Z,9.15
2022-08-03T11:59:52.088Z,10.75
2022-08-03T12:02:05.759Z,8.90
2022-08-03T12:04:07.501Z,9.68
2022-08-03T12:06:10.225Z,7.43
2022-08-03T12:08:12.887Z,7.45
2022-08-03T12:10:15.000Z,6.10
2022-08-03T12:12:16.624Z,5.63
2022-08-03T12:14:50.040Z,7.28
2022-08-03T12:16:41.171Z,5.60
2022-08-03T12:18:42.800Z,7.75
2022-08-03T12:20:45.388Z,5.65
2022-08-03T12:22:47.123Z,6.32
2022-08-03T12:24:48.759Z,7.45
2022-08-03T12:26:59.309Z,6.68
2022-08-03T12:29:01.287Z,6.95
2022-08-03T12:31:03.928Z,7.03
2022-08-03T12:33:16.332Z,6.53
2022-08-03T12:35:23.253Z,7.45
2022-08-03T12:37:25.931Z,5.95
2022-08-03T12:39:30.998Z,7.95
2022-08-03T12:41:35.139Z,11.90
2022-08-03T12:43:39.643Z,7.68
2022-08-03T12:45:42.024Z,9.02
2022-08-03T12:47:57.201Z,8.38
2022-08-03T12:49:58.884Z,6.75
2022-08-03T12:52:05.312Z,9.13
2022-08-03T12:54:24.163Z,8.40
2022-08-03T12:56:26.625Z,7.85
2022-08-03T12:58:34.219Z,6.65
2022-08-03T13:00:36.433Z,8.23
2022-08-03T13:02:38.732Z,9.43
2022-08-03T13:04:40.978Z,7.82
2022-08-03T13:06:42.562Z,10.90
2022-08-03T13:08:44.361Z,9.77
2022-08-03T13:10:46.277Z,13.20
2022-08-03T13:12:48.553Z,9.23
2022-08-03T13:14:51.862Z,9.93
2022-08-03T13:16:54.002Z,9.13
2022-08-03T13:18:56.235Z,7.07
2022-08-03T13:20:57.889Z,6.72
2022-08-03T13:23:01.083Z,7.18
2022-08-03T13:25:03.522Z,7.30
2022-08-03T13:28:02.454Z,10.98
2022-08-03T13:29:28.854Z,6.88
2022-08-03T13:31:30.478Z,8.20
2022-08-03T13:33:32.248Z,8.38
2022-08-03T13:35:34.232Z,7.63
2022-08-03T13:37:36.299Z,10.25
2022-08-03T13:39:58.324Z,9.80
2022-08-03T13:42:00.141Z,10.07
2022-08-03T13:44:26.726Z,10.53
2022-08-03T13:46:23.676Z,9.02
2022-08-03T13:48:37.136Z,13.80
2022-08-03T13:50:42.942Z,8.25
2022-08-03T13:52:46.334Z,6.57
2022-08-03T13:54:48.123Z,11.95
2022-08-03T13:56:53.067Z,5.97
2022-08-03T13:58:55.139Z,6.82
2022-08-03T14:00:56.943Z,6.65
2022-08-03T14:03:13.634Z,6.23
2022-08-03T14:05:16.152Z,10.80
2022-08-03T14:07:18.205Z,6.47
2022-08-03T14:09:19.961Z,6.45
2022-08-03T14:11:23.008Z,10.10
2022-08-03T14:13:44.863Z,6.10
2022-08-03T14:15:49.617Z,6.30
2022-08-03T14:17:53.176Z,8.82
2022-08-03T14:22:06.419Z,11.60
2022-08-03T14:24:08.591Z,6.63
2022-08-03T14:26:11.973Z,8.85
2022-08-03T14:28:13.607Z,8.43
2022-08-03T14:30:15.751Z,10.37
2022-08-03T14:32:17.808Z,12.27
2022-08-03T14:34:19.407Z,9.20
2022-08-03T14:36:21.036Z,9.37
2022-08-03T14:38:22.975Z,7.70
2022-08-03T14:40:24.639Z,8.85
2022-08-03T14:42:26.247Z,6.63
2022-08-03T14:44:28.085Z,9.48
2022-08-03T14:46:30.038Z,6.77
2022-08-03T14:50:29.165Z,7.47
2022-08-03T14:50:55.123Z,6.82
2022-08-03T14:52:57.017Z,6.22
2022-08-03T14:54:59.205Z,6.63
2022-08-03T14:57:01.069Z,6.32
2022-08-03T14:59:03.484Z,6.40
2022-08-03T15:03:27.684Z,6.70
2022-08-03T15:05:29.315Z,8.23
2022-08-03T15:07:30.856Z,10.38
2022-08-03T15:09:33.021Z,8.07
2022-08-03T15:11:34.950Z,7.10
2022-08-03T15:13:36.971Z,12.40
2022-08-03T15:15:38.794Z,7.85
2022-08-03T15:17:40.441Z,6.63
2022-08-03T15:20:25.439Z,7.65
2022-08-03T15:22:34.954Z,6.80
2022-08-03T15:24:37.292Z,10.07
2022-08-03T15:26:41.613Z,9.68
2022-08-03T15:28:43.717Z,12.07
2022-08-03T15:30:45.354Z,10.68
2022-08-03T15:32:47.104Z,7.90
2022-08-03T15:34:50.368Z,11.57
2022-08-03T15:36:52.502Z,8.43
2022-08-03T15:38:54.544Z,8.03
2022-08-03T15:40:57.103Z,10.73
2022-08-03T15:42:59.994Z,9.18
2022-08-03T15:45:01.868Z,7.65
2022-08-03T15:47:03.740Z,7.15
2022-08-03T15:49:05.482Z,6.85
2022-08-03T15:51:07.992Z,7.97
2022-08-03T15:53:09.809Z,8.18
2022-08-03T15:55:15.775Z,6.80
2022-08-03T15:57:19.211Z,9.07
2022-08-03T15:59:21.941Z,11.10
2022-08-03T16:01:25.288Z,9.05
2022-08-03T16:03:28.400Z,7.10
2022-08-03T16:05:30.478Z,8.75
2022-08-03T16:08:02.529Z,7.68
2022-08-03T16:10:43.722Z,8.80
2022-08-03T16:12:46.009Z,7.43
2022-08-03T16:14:52.767Z,7.40
2022-08-03T16:16:58.418Z,8.63
2022-08-03T16:19:00.246Z,7.35
2022-08-03T16:21:07.143Z,6.78
2022-08-03T16:23:14.044Z,7.00
2022-08-03T16:25:24.190Z,7.85
2022-08-03T16:27:56.907Z,6.72
2022-08-03T16:29:47.591Z,10.50
2022-08-03T16:31:51.155Z,7.00
2022-08-03T16:33:53.984Z,6.32
2022-08-03T16:35:55.595Z,10.38
2022-08-03T16:37:57.706Z,9.88
2022-08-03T16:39:59.550Z,12.40
2022-08-03T16:42:01.889Z,8.75
2022-08-03T16:44:09.494Z,8.77
2022-08-03T16:48:50.824Z,6.95
2022-08-03T16:50:53.013Z,9.30
2022-08-03T16:52:54.983Z,7.40
2022-08-03T16:54:56.759Z,8.18
2022-08-03T16:57:00.444Z,7.55
2022-08-03T16:59:03.791Z,8.20
2022-08-03T17:01:10.809Z,7.35
2022-08-03T17:03:24.518Z,9.02
2022-08-03T17:05:26.787Z,7.40
2022-08-03T17:07:46.814Z,8.82
2022-08-03T17:09:52.537Z,9.93
2022-08-03T17:11:57.861Z,7.13
2022-08-03T17:13:59.559Z,8.40
2022-08-03T17:16:05.459Z,7.65
2022-08-03T17:18:13.252Z,8.98
2022-08-03T17:20:15.727Z,7.90
2022-08-03T17:22:22.563Z,6.55
2022-08-03T17:24:27.867Z,7.07
2022-08-03T17:28:59.996Z,9.52
2022-08-03T17:31:22.854Z,26.88
2022-08-03T17:33:35.534Z,7.03
2022-08-03T17:35:40.153Z,6.80
2022-08-03T17:37:57.513Z,12.23
2022-08-03T17:40:06.059Z,6.65
2022-08-03T17:42:30.268Z,6.88
2022-08-03T17:44:37.666Z,6.78
2022-08-03T17:46:45.922Z,9.15
2022-08-03T17:48:49.033Z,6.70
2022-08-03T17:50:52.751Z,8.45
2022-08-03T18:08:57.728Z,8.07
2022-08-03T18:32:22.855Z,9.60
2022-08-03T18:34:53.080Z,7.82
2022-08-03T18:39:52.683Z,10.57
2022-08-03T18:42:25.812Z,9.07
2022-08-03T18:44:54.257Z,14.38
2022-08-03T18:51:50.336Z,28.85
2022-08-03T18:54:02.344Z,12.43
2022-08-03T18:56:14.753Z,20.33
2022-08-03T18:58:35.186Z,15.43
2022-08-03T19:00:53.849Z,16.02
2022-08-03T19:05:51.623Z,19.23
2022-08-03T19:08:29.949Z,16.60
2022-08-03T19:13:36.027Z,13.00
2022-08-03T19:20:24.966Z,16.33
2022-08-03T19:29:58.477Z,21.75
2022-08-03T19:32:04.767Z,15.65
2022-08-03T19:34:07.753Z,21.80
2022-08-03T20:02:26.802Z,21.67
2022-08-03T20:04:48.842Z,19.33
2022-08-03T20:12:49.919Z,16.33
2022-08-03T20:14:53.264Z,19.73
2022-08-03T20:16:58.551Z,19.35
2022-08-03T20:19:02.588Z,20.65
2022-08-03T20:21:18.798Z,16.63
2022-08-03T20:23:21.348Z,17.88
2022-08-03T20:25:37.553Z,20.15
2022-08-03T20:30:08.405Z,16.88
2022-08-03T20:32:10.253Z,20.38
2022-08-03T20:34:11.985Z,22.40
2022-08-03T20:36:19.726Z,17.48
2022-08-03T20:38:33.396Z,16.95
2022-08-03T20:40:46.172Z,18.15
2022-08-03T20:42:48.034Z,16.13
2022-08-03T20:45:06.330Z,21.52
2022-08-03T20:47:15.239Z,14.95
2022-08-03T20:49:25.965Z,16.83
2022-08-03T20:51:49.162Z,18.75
2022-08-03T20:53:59.505Z,14.23
2022-08-03T20:56:03.005Z,18.02
2022-08-03T20:58:19.274Z,14.13
2022-08-03T21:00:25.914Z,18.13
2022-08-03T21:02:31.216Z,15.15
2022-08-03T21:04:33.951Z,16.73
2022-08-03T21:06:53.300Z,16.20
2022-08-03T21:09:00.123Z,13.13
2022-08-03T21:11:07.823Z,16.23
2022-08-03T21:13:13.048Z,18.55
2022-08-03T21:16:01.200Z,13.93
2022-08-03T21:17:52.988Z,15.68
2022-08-03T21:19:54.970Z,16.08
2022-08-03T21:21:57.355Z,15.77
2022-08-03T21:24:00.134Z,17.92
2022-08-03T21:26:02.594Z,16.85
2022-08-03T21:28:05.347Z,16.27
2022-08-03T21:30:08.583Z,15.65
2022-08-03T21:32:14.075Z,15.93
2022-08-03T21:34:20.954Z,13.45
2022-08-03T21:36:22.954Z,14.80
2022-08-03T21:38:29.852Z,14.88
2022-08-03T21:40:32.001Z,12.55
2022-08-03T21:42:33.865Z,12.55
2022-08-03T21:44:35.493Z,14.00
2022-08-03T21:46:39.277Z,11.77
2022-08-03T21:48:41.662Z,12.57
2022-08-03T21:50:43.877Z,14.52
2022-08-03T21:52:47.303Z,13.75
2022-08-03T21:54:49.493Z,11.48
2022-08-03T21:56:51.343Z,12.93
2022-08-03T21:58:52.871Z,13.77
2022-08-03T22:00:55.259Z,14.00
2022-08-03T22:02:58.235Z,12.50
2022-08-03T22:05:00.087Z,15.93
2022-08-03T22:07:02.007Z,9.97
2022-08-03T22:09:05.514Z,9.68
2022-08-03T22:11:08.979Z,17.08
2022-08-03T22:13:11.698Z,9.70
2022-08-03T22:15:14.093Z,8.48
2022-08-03T22:17:53.504Z,10.68
2022-08-03T22:19:37.736Z,26.35
2022-08-03T22:21:39.832Z,12.15
2022-08-03T22:23:43.207Z,13.20
2022-08-03T22:25:45.892Z,11.13
2022-08-03T22:27:48.599Z,13.93
2022-08-03T22:29:51.291Z,14.03
2022-08-03T22:33:59.691Z,15.93
2022-08-03T22:36:03.596Z,19.00
2022-08-03T22:38:06.536Z,12.48
2022-08-03T22:40:12.303Z,14.73
2022-08-03T22:42:14.021Z,15.32
2022-08-03T22:44:16.172Z,17.57
2022-08-03T22:46:21.014Z,13.82
2022-08-03T22:48:23.005Z,13.95
2022-08-03T22:50:31.647Z,15.45
2022-08-03T22:52:36.483Z,14.32
2022-08-03T22:54:38.122Z,14.30
2022-08-03T22:56:40.332Z,13.80
2022-08-03T22:58:42.161Z,20.03
2022-08-03T23:00:58.444Z,20.15
2022-08-03T23:03:02.026Z,14.95
2022-08-03T23:05:05.622Z,15.40
2022-08-03T23:07:15.037Z,16.30
2022-08-03T23:09:19.239Z,13.73
2022-08-03T23:11:21.554Z,12.25
2022-08-03T23:13:28.026Z,12.55
2022-08-03T23:15:30.273Z,12.30
2022-08-03T23:17:32.406Z,12.73
2022-08-03T23:19:44.566Z,17.08
2022-08-03T23:22:00.672Z,18.67
2022-08-03T23:24:05.647Z,12.45
2022-08-03T23:26:19.848Z,12.55
2022-08-03T23:28:21.918Z,18.35
2022-08-03T23:30:25.348Z,14.40
2022-08-03T23:32:33.521Z,17.67
2022-08-03T23:34:57.327Z,19.50
2022-08-03T23:37:00.675Z,15.85
2022-08-03T23:39:02.466Z,11.80
2022-08-03T23:41:05.054Z,15.80
2022-08-03T23:43:07.020Z,17.10
2022-08-03T23:45:09.059Z,15.17
2022-08-03T23:47:12.253Z,20.63
2022-08-03T23:49:14.606Z,19.02
2022-08-03T23:51:35.103Z,16.42
2022-08-03T23:54:02.100Z,15.45
2022-08-03T23:56:06.841Z,14.35
2022-08-03T23:58:10.893Z,12.82
